sensor_id;sensor_type;location;lat;lon;timestamp;pressure;altitude;pressure_sealevel;temperature;humidity
66762;BME280;53672;48.176;16.338;2023-02-03T00:03:57;100008.41;;;1.39;94.49
66762;BME280;53672;48.176;16.338;2023-02-03T00:08:59;100014.34;;;1.47;94.32
66762;BME280;53672;48.176;16.338;2023-02-03T00:13:59;100010.47;;;1.50;93.93
66762;BME280;53672;48.176;16.338;2023-02-03T00:19:00;100020.06;;;1.51;93.97
66762;BME280;53672;48.176;16.338;2023-02-03T00:24:02;100035.00;;;1.59;93.57
66762;BME280;53672;48.176;16.338;2023-02-03T00:29:02;100037.47;;;1.60;93.63
66762;BME280;53672;48.176;16.338;2023-02-03T00:34:03;100033.19;;;1.72;93.21
66762;BME280;53672;48.176;16.338;2023-02-03T00:39:05;100029.53;;;1.73;93.67
66762;BME280;53672;48.176;16.338;2023-02-03T00:44:05;100035.25;;;1.64;93.78
66762;BME280;53672;48.176;16.338;2023-02-03T00:49:06;100039.31;;;1.66;94.05
66762;BME280;53672;48.176;16.338;2023-02-03T00:54:08;100040.56;;;1.64;94.40
66762;BME280;53672;48.176;16.338;2023-02-03T00:59:08;100035.44;;;1.69;94.41
66762;BME280;53672;48.176;16.338;2023-02-03T01:04:09;100029.28;;;1.62;94.57
66762;BME280;53672;48.176;16.338;2023-02-03T01:09:11;100022.16;;;1.75;93.86
66762;BME280;53672;48.176;16.338;2023-02-03T01:14:11;100015.25;;;1.81;93.07
66762;BME280;53672;48.176;16.338;2023-02-03T01:19:12;100009.94;;;1.74;93.59
66762;BME280;53672;48.176;16.338;2023-02-03T01:24:14;100009.09;;;1.67;93.90
66762;BME280;53672;48.176;16.338;2023-02-03T01:29:14;100004.56;;;1.61;94.21
66762;BME280;53672;48.176;16.338;2023-02-03T01:34:15;99997.81;;;1.52;95.19
66762;BME280;53672;48.176;16.338;2023-02-03T01:39:17;99991.63;;;1.38;96.06
66762;BME280;53672;48.176;16.338;2023-02-03T01:44:40;99976.69;;;1.31;97.13
66762;BME280;53672;48.176;16.338;2023-02-03T01:49:44;99982.44;;;1.34;96.98
66762;BME280;53672;48.176;16.338;2023-02-03T01:54:49;99975.50;;;1.33;96.97
66762;BME280;53672;48.176;16.338;2023-02-03T01:59:53;99965.72;;;1.47;96.41
66762;BME280;53672;48.176;16.338;2023-02-03T02:05:00;99960.84;;;1.64;95.24
66762;BME280;53672;48.176;16.338;2023-02-03T02:10:04;99959.44;;;1.68;95.32
66762;BME280;53672;48.176;16.338;2023-02-03T02:15:06;99953.72;;;1.77;94.59
66762;BME280;53672;48.176;16.338;2023-02-03T02:25:49;99953.72;;;1.90;94.34
66762;BME280;53672;48.176;16.338;2023-02-03T02:31:11;99946.97;;;2.08;93.91
66762;BME280;53672;48.176;16.338;2023-02-03T02:36:27;99942.88;;;2.25;94.14
66762;BME280;53672;48.176;16.338;2023-02-03T02:41:35;99939.19;;;2.26;95.66
66762;BME280;53672;48.176;16.338;2023-02-03T02:46:42;99933.88;;;2.26;96.67
66762;BME280;53672;48.176;16.338;2023-02-03T02:51:45;99928.97;;;2.16;97.69
66762;BME280;53672;48.176;16.338;2023-02-03T02:56:50;99939.59;;;2.10;98.75
66762;BME280;53672;48.176;16.338;2023-02-03T03:01:51;99926.31;;;2.10;99.27
66762;BME280;53672;48.176;16.338;2023-02-03T03:06:57;99911.19;;;2.10;99.40
66762;BME280;53672;48.176;16.338;2023-02-03T03:12:02;99893.81;;;2.01;100.00
66762;BME280;53672;48.176;16.338;2023-02-03T03:17:06;99895.44;;;1.95;100.00
66762;BME280;53672;48.176;16.338;2023-02-03T03:22:12;99906.91;;;1.83;100.00
66762;BME280;53672;48.176;16.338;2023-02-03T03:27:17;99895.44;;;1.82;100.00
66762;BME280;53672;48.176;16.338;2023-02-03T03:32:20;99898.09;;;1.82;100.00
66762;BME280;53672;48.176;16.338;2023-02-03T03:37:29;99889.31;;;1.75;100.00
66762;BME280;53672;48.176;16.338;2023-02-03T03:42:34;99885.84;;;1.75;100.00
66762;BME280;53672;48.176;16.338;2023-02-03T03:47:43;99886.66;;;1.69;100.00
66762;BME280;53672;48.176;16.338;2023-02-03T03:52:48;99886.25;;;1.78;100.00
66762;BME280;53672;48.176;16.338;2023-02-03T03:57:54;99894.63;;;1.75;100.00
66762;BME280;53672;48.176;16.338;2023-02-03T04:03:01;99902.81;;;1.80;100.00
66762;BME280;53672;48.176;16.338;2023-02-03T04:08:05;99890.78;;;1.78;100.00
66762;BME280;53672;48.176;16.338;2023-02-03T04:13:07;99866.44;;;1.74;100.00
66762;BME280;53672;48.176;16.338;2023-02-03T04:18:09;99858.06;;;1.71;100.00
66762;BME280;53672;48.176;16.338;2023-02-03T04:23:12;99857.84;;;1.72;100.00
66762;BME280;53672;48.176;16.338;2023-02-03T04:28:13;99852.50;;;1.85;100.00
66762;BME280;53672;48.176;16.338;2023-02-03T04:33:13;99836.56;;;1.85;100.00
66762;BME280;53672;48.176;16.338;2023-02-03T04:38:15;99843.09;;;1.96;100.00
66762;BME280;53672;48.176;16.338;2023-02-03T04:43:16;99827.78;;;1.91;100.00
66762;BME280;53672;48.176;16.338;2023-02-03T04:48:16;99828.38;;;1.93;100.00
66762;BME280;53672;48.176;16.338;2023-02-03T04:53:18;99822.22;;;1.99;100.00
66762;BME280;53672;48.176;16.338;2023-02-03T04:58:18;99806.25;;;2.06;100.00
66762;BME280;53672;48.176;16.338;2023-02-03T05:03:19;99798.91;;;2.15;100.00
66762;BME280;53672;48.176;16.338;2023-02-03T05:08:21;99800.28;;;2.24;100.00
66762;BME280;53672;48.176;16.338;2023-02-03T05:13:21;99808.88;;;2.32;100.00
66762;BME280;53672;48.176;16.338;2023-02-03T05:18:22;99792.84;;;2.45;100.00
66762;BME280;53672;48.176;16.338;2023-02-03T05:23:24;99781.16;;;2.53;100.00
66762;BME280;53672;48.176;16.338;2023-02-03T05:28:25;99776.19;;;2.63;100.00
66762;BME280;53672;48.176;16.338;2023-02-03T05:33:25;99774.47;;;2.75;100.00
66762;BME280;53672;48.176;16.338;2023-02-03T05:38:27;99760.06;;;2.89;100.00
66762;BME280;53672;48.176;16.338;2023-02-03T05:43:28;99763.06;;;2.99;100.00
66762;BME280;53672;48.176;16.338;2023-02-03T05:48:29;99747.03;;;3.06;100.00
66762;BME280;53672;48.176;16.338;2023-02-03T05:53:31;99742.25;;;3.15;100.00
66762;BME280;53672;48.176;16.338;2023-02-03T05:58:31;99758.38;;;3.20;100.00
66762;BME280;53672;48.176;16.338;2023-02-03T06:03:32;99732.75;;;3.25;100.00
66762;BME280;53672;48.176;16.338;2023-02-03T06:08:34;99710.56;;;3.31;100.00
66762;BME280;53672;48.176;16.338;2023-02-03T06:13:34;99726.94;;;3.35;100.00
66762;BME280;53672;48.176;16.338;2023-02-03T06:18:35;99732.47;;;3.33;100.00
66762;BME280;53672;48.176;16.338;2023-02-03T06:23:36;99718.06;;;3.41;100.00
66762;BME280;53672;48.176;16.338;2023-02-03T06:28:37;99715.31;;;3.47;100.00
66762;BME280;53672;48.176;16.338;2023-02-03T06:33:37;99701.78;;;3.49;100.00
66762;BME280;53672;48.176;16.338;2023-02-03T06:38:39;99713.63;;;3.53;100.00
66762;BME280;53672;48.176;16.338;2023-02-03T06:43:40;99710.16;;;3.52;100.00
66762;BME280;53672;48.176;16.338;2023-02-03T06:48:40;99704.31;;;3.62;99.99
66762;BME280;53672;48.176;16.338;2023-02-03T06:53:42;99699.13;;;3.67;99.68
66762;BME280;53672;48.176;16.338;2023-02-03T06:58:43;99677.66;;;3.80;98.72
66762;BME280;53672;48.176;16.338;2023-02-03T07:03:43;99695.56;;;3.91;98.52
66762;BME280;53672;48.176;16.338;2023-02-03T07:08:45;99704.38;;;3.92;98.42
66762;BME280;53672;48.176;16.338;2023-02-03T07:13:45;99692.44;;;3.94;98.95
66762;BME280;53672;48.176;16.338;2023-02-03T07:18:46;99675.34;;;4.02;99.38
66762;BME280;53672;48.176;16.338;2023-02-03T07:23:49;99696.00;;;4.06;98.89
66762;BME280;53672;48.176;16.338;2023-02-03T07:28:50;99682.34;;;4.15;98.67
66762;BME280;53672;48.176;16.338;2023-02-03T07:33:50;99691.91;;;4.22;99.03
66762;BME280;53672;48.176;16.338;2023-02-03T07:38:52;99691.81;;;4.29;99.21
66762;BME280;53672;48.176;16.338;2023-02-03T07:43:52;99676.16;;;4.32;98.59
66762;BME280;53672;48.176;16.338;2023-02-03T07:48:53;99667.75;;;4.47;96.97
66762;BME280;53672;48.176;16.338;2023-02-03T07:53:55;99664.16;;;4.53;96.71
66762;BME280;53672;48.176;16.338;2023-02-03T07:58:56;99657.13;;;4.58;96.61
66762;BME280;53672;48.176;16.338;2023-02-03T08:03:56;99651.22;;;4.68;95.71
66762;BME280;53672;48.176;16.338;2023-02-03T08:08:58;99656.81;;;4.78;95.00
66762;BME280;53672;48.176;16.338;2023-02-03T08:13:58;99635.47;;;5.01;93.66
66762;BME280;53672;48.176;16.338;2023-02-03T08:18:59;99618.50;;;5.19;92.82
66762;BME280;53672;48.176;16.338;2023-02-03T08:24:01;99615.72;;;5.37;91.27
66762;BME280;53672;48.176;16.338;2023-02-03T08:29:01;99604.38;;;5.58;89.27
66762;BME280;53672;48.176;16.338;2023-02-03T08:34:02;99587.16;;;5.66;87.71
66762;BME280;53672;48.176;16.338;2023-02-03T08:39:04;99562.28;;;5.66;86.26
66762;BME280;53672;48.176;16.338;2023-02-03T08:44:05;99567.59;;;5.77;85.23
66762;BME280;53672;48.176;16.338;2023-02-03T08:49:05;99563.88;;;5.78;84.93
66762;BME280;53672;48.176;16.338;2023-02-03T08:54:07;99542.13;;;5.86;84.00
66762;BME280;53672;48.176;16.338;2023-02-03T08:59:07;99558.47;;;6.01;83.22
66762;BME280;53672;48.176;16.338;2023-02-03T09:04:08;99534.44;;;6.06;82.84
66762;BME280;53672;48.176;16.338;2023-02-03T09:09:10;99539.47;;;6.03;82.67
66762;BME280;53672;48.176;16.338;2023-02-03T09:14:10;99532.38;;;6.25;80.90
66762;BME280;53672;48.176;16.338;2023-02-03T09:19:11;99539.75;;;6.51;79.70
66762;BME280;53672;48.176;16.338;2023-02-03T09:24:13;99522.81;;;6.46;78.58
66762;BME280;53672;48.176;16.338;2023-02-03T09:29:13;99507.97;;;6.55;78.57
66762;BME280;53672;48.176;16.338;2023-02-03T09:34:14;99499.97;;;6.77;76.62
66762;BME280;53672;48.176;16.338;2023-02-03T09:39:16;99482.09;;;6.82;75.41
66762;BME280;53672;48.176;16.338;2023-02-03T09:44:21;99511.16;;;6.90;75.12
66762;BME280;53672;48.176;16.338;2023-02-03T09:49:27;99462.50;;;6.98;74.19
66762;BME280;53672;48.176;16.338;2023-02-03T09:54:40;99440.81;;;7.22;73.17
66762;BME280;53672;48.176;16.338;2023-02-03T09:59:42;99421.44;;;7.41;71.95
66762;BME280;53672;48.176;16.338;2023-02-03T10:04:46;99417.03;;;7.57;70.89
66762;BME280;53672;48.176;16.338;2023-02-03T10:09:59;99432.75;;;7.70;70.03
66762;BME280;53672;48.176;16.338;2023-02-03T10:15:19;99425.50;;;8.02;68.85
66762;BME280;53672;48.176;16.338;2023-02-03T10:20:25;99410.63;;;8.22;68.03
66762;BME280;53672;48.176;16.338;2023-02-03T10:25:34;99404.56;;;8.31;67.96
66762;BME280;53672;48.176;16.338;2023-02-03T10:30:41;99401.06;;;8.31;67.97
66762;BME280;53672;48.176;16.338;2023-02-03T10:35:48;99364.47;;;8.25;67.59
66762;BME280;53672;48.176;16.338;2023-02-03T10:40:51;99355.41;;;8.36;67.67
66762;BME280;53672;48.176;16.338;2023-02-03T10:45:51;99322.47;;;8.08;67.86
66762;BME280;53672;48.176;16.338;2023-02-03T10:50:53;99311.16;;;8.01;68.03
66762;BME280;53672;48.176;16.338;2023-02-03T10:56:04;99347.88;;;7.91;68.33
66762;BME280;53672;48.176;16.338;2023-02-03T11:01:09;99286.63;;;7.83;68.59
66762;BME280;53672;48.176;16.338;2023-02-03T11:06:12;99305.94;;;7.85;68.16
66762;BME280;53672;48.176;16.338;2023-02-03T11:11:21;99319.63;;;7.83;67.96
66762;BME280;53672;48.176;16.338;2023-02-03T11:16:22;99316.97;;;7.88;67.37
66762;BME280;53672;48.176;16.338;2023-02-03T11:21:25;99275.06;;;7.82;66.78
66762;BME280;53672;48.176;16.338;2023-02-03T11:26:31;99293.34;;;7.85;67.40
66762;BME280;53672;48.176;16.338;2023-02-03T11:31:34;99254.59;;;7.66;68.56
66762;BME280;53672;48.176;16.338;2023-02-03T11:36:35;99290.16;;;7.51;69.30
66762;BME280;53672;48.176;16.338;2023-02-03T11:41:38;99258.94;;;7.40;70.08
66762;BME280;53672;48.176;16.338;2023-02-03T11:46:39;99256.91;;;7.52;70.09
66762;BME280;53672;48.176;16.338;2023-02-03T11:51:47;99221.69;;;7.44;69.65
66762;BME280;53672;48.176;16.338;2023-02-03T11:57:04;99193.88;;;7.50;69.84
66762;BME280;53672;48.176;16.338;2023-02-03T12:02:29;99159.69;;;7.30;70.41
66762;BME280;53672;48.176;16.338;2023-02-03T12:07:47;99161.09;;;7.01;74.91
66762;BME280;53672;48.176;16.338;2023-02-03T12:12:57;99177.13;;;6.64;77.63
66762;BME280;53672;48.176;16.338;2023-02-03T12:18:07;99141.13;;;6.55;78.07
66762;BME280;53672;48.176;16.338;2023-02-03T12:23:21;99125.19;;;6.38;79.98
66762;BME280;53672;48.176;16.338;2023-02-03T12:28:35;99116.84;;;6.35;79.15
66762;BME280;53672;48.176;16.338;2023-02-03T12:33:41;99088.59;;;6.49;76.10
66762;BME280;53672;48.176;16.338;2023-02-03T12:38:47;99052.84;;;6.65;73.95
66762;BME280;53672;48.176;16.338;2023-02-03T12:43:58;99039.88;;;6.84;73.05
66762;BME280;53672;48.176;16.338;2023-02-03T12:49:02;99055.94;;;6.84;74.21
66762;BME280;53672;48.176;16.338;2023-02-03T12:54:12;99038.53;;;6.81;74.81
66762;BME280;53672;48.176;16.338;2023-02-03T12:59:19;99023.72;;;6.74;74.68
66762;BME280;53672;48.176;16.338;2023-02-03T13:04:28;99001.22;;;6.70;75.46
66762;BME280;53672;48.176;16.338;2023-02-03T13:09:35;99014.00;;;6.62;75.42
66762;BME280;53672;48.176;16.338;2023-02-03T13:14:41;98998.47;;;6.64;75.61
66762;BME280;53672;48.176;16.338;2023-02-03T13:19:46;98984.91;;;6.76;73.43
66762;BME280;53672;48.176;16.338;2023-02-03T13:25:06;99004.53;;;6.87;73.90
66762;BME280;53672;48.176;16.338;2023-02-03T13:30:29;98949.59;;;6.84;73.39
66762;BME280;53672;48.176;16.338;2023-02-03T13:35:44;98963.56;;;6.91;72.65
66762;BME280;53672;48.176;16.338;2023-02-03T13:40:58;98975.25;;;6.75;74.52
66762;BME280;53672;48.176;16.338;2023-02-03T13:46:03;98975.41;;;6.58;76.15
66762;BME280;53672;48.176;16.338;2023-02-03T13:51:06;98933.94;;;6.61;75.83
66762;BME280;53672;48.176;16.338;2023-02-03T13:56:16;98977.28;;;6.53;77.11
66762;BME280;53672;48.176;16.338;2023-02-03T14:01:34;99020.69;;;6.23;81.99
66762;BME280;53672;48.176;16.338;2023-02-03T14:06:59;99021.81;;;5.79;86.61
66762;BME280;53672;48.176;16.338;2023-02-03T14:23:26;99028.38;;;5.23;93.93
66762;BME280;53672;48.176;16.338;2023-02-03T14:28:36;99055.50;;;5.15;95.60
66762;BME280;53672;48.176;16.338;2023-02-03T14:33:50;99058.44;;;5.13;94.06
66762;BME280;53672;48.176;16.338;2023-02-03T14:38:53;99048.19;;;5.05;96.62
66762;BME280;53672;48.176;16.338;2023-02-03T14:43:59;99058.88;;;5.05;96.28
66762;BME280;53672;48.176;16.338;2023-02-03T14:49:21;99053.16;;;4.96;96.44
66762;BME280;53672;48.176;16.338;2023-02-03T14:54:42;99061.41;;;4.95;97.45
66762;BME280;53672;48.176;16.338;2023-02-03T14:59:48;99060.66;;;4.99;96.57
66762;BME280;53672;48.176;16.338;2023-02-03T15:04:51;99051.91;;;5.04;95.23
66762;BME280;53672;48.176;16.338;2023-02-03T15:09:53;99048.41;;;5.03;96.35
66762;BME280;53672;48.176;16.338;2023-02-03T15:15:13;99051.91;;;5.04;95.57
66762;BME280;53672;48.176;16.338;2023-02-03T15:20:24;99018.16;;;4.98;96.70
66762;BME280;53672;48.176;16.338;2023-02-03T15:25:27;98967.19;;;4.99;95.14
66762;BME280;53672;48.176;16.338;2023-02-03T15:30:29;98994.72;;;5.00;95.86
66762;BME280;53672;48.176;16.338;2023-02-03T15:35:33;98969.09;;;5.04;95.09
66762;BME280;53672;48.176;16.338;2023-02-03T15:40:36;98975.75;;;5.01;94.70
66762;BME280;53672;48.176;16.338;2023-02-03T15:45:41;98997.13;;;5.01;93.87
66762;BME280;53672;48.176;16.338;2023-02-03T15:50:47;99008.94;;;5.05;93.81
66762;BME280;53672;48.176;16.338;2023-02-03T15:55:53;98975.16;;;5.16;91.93
66762;BME280;53672;48.176;16.338;2023-02-03T16:00:58;99000.03;;;5.22;90.32
66762;BME280;53672;48.176;16.338;2023-02-03T16:06:07;98976.94;;;5.32;88.68
66762;BME280;53672;48.176;16.338;2023-02-03T16:11:35;98958.28;;;5.37;87.81
66762;BME280;53672;48.176;16.338;2023-02-03T16:16:39;98917.84;;;5.29;88.27
66762;BME280;53672;48.176;16.338;2023-02-03T16:21:51;98919.69;;;5.28;87.50
66762;BME280;53672;48.176;16.338;2023-02-03T16:26:52;98950.47;;;5.31;87.67
66762;BME280;53672;48.176;16.338;2023-02-03T16:31:53;98932.97;;;5.45;86.46
66762;BME280;53672;48.176;16.338;2023-02-03T16:36:55;98937.31;;;5.51;85.85
66762;BME280;53672;48.176;16.338;2023-02-03T16:41:57;98936.63;;;5.60;84.94
66762;BME280;53672;48.176;16.338;2023-02-03T16:46:58;98972.63;;;5.80;83.19
66762;BME280;53672;48.176;16.338;2023-02-03T16:52:01;98932.09;;;5.88;82.80
66762;BME280;53672;48.176;16.338;2023-02-03T16:57:02;98918.44;;;5.89;82.73
66762;BME280;53672;48.176;16.338;2023-02-03T17:02:03;98928.69;;;5.97;82.30
66762;BME280;53672;48.176;16.338;2023-02-03T17:07:05;98911.59;;;6.03;81.80
66762;BME280;53672;48.176;16.338;2023-02-03T17:12:06;98927.72;;;6.13;80.74
66762;BME280;53672;48.176;16.338;2023-02-03T17:17:06;98942.72;;;6.15;80.69
66762;BME280;53672;48.176;16.338;2023-02-03T17:22:08;98944.66;;;6.19;81.04
66762;BME280;53672;48.176;16.338;2023-02-03T17:27:09;98939.53;;;6.18;81.26
66762;BME280;53672;48.176;16.338;2023-02-03T17:32:09;98927.81;;;6.24;80.05
66762;BME280;53672;48.176;16.338;2023-02-03T17:37:11;98922.75;;;6.27;79.59
66762;BME280;53672;48.176;16.338;2023-02-03T17:42:13;98915.50;;;6.23;81.89
66762;BME280;53672;48.176;16.338;2023-02-03T17:47:13;98912.75;;;6.13;82.58
66762;BME280;53672;48.176;16.338;2023-02-03T17:52:15;98847.72;;;6.12;82.12
66762;BME280;53672;48.176;16.338;2023-02-03T17:57:16;98965.75;;;6.16;82.77
66762;BME280;53672;48.176;16.338;2023-02-03T18:02:16;99003.63;;;6.02;85.75
66762;BME280;53672;48.176;16.338;2023-02-03T18:07:19;99065.16;;;5.81;89.62
66762;BME280;53672;48.176;16.338;2023-02-03T18:12:20;99082.72;;;5.50;95.05
66762;BME280;53672;48.176;16.338;2023-02-03T18:17:20;99064.09;;;5.17;97.21
66762;BME280;53672;48.176;16.338;2023-02-03T18:22:22;99102.50;;;4.94;100.00
66762;BME280;53672;48.176;16.338;2023-02-03T18:27:23;99101.53;;;4.83;100.00
66762;BME280;53672;48.176;16.338;2023-02-03T18:32:24;99096.63;;;4.75;100.00
66762;BME280;53672;48.176;16.338;2023-02-03T18:37:27;99090.63;;;4.68;100.00
66762;BME280;53672;48.176;16.338;2023-02-03T18:42:28;99104.38;;;4.60;100.00
66762;BME280;53672;48.176;16.338;2023-02-03T18:47:29;99104.53;;;4.53;100.00
66762;BME280;53672;48.176;16.338;2023-02-03T18:52:32;99106.53;;;4.63;100.00
66762;BME280;53672;48.176;16.338;2023-02-03T18:57:33;99084.25;;;4.69;100.00
66762;BME280;53672;48.176;16.338;2023-02-03T19:02:34;99084.63;;;4.78;100.00
66762;BME280;53672;48.176;16.338;2023-02-03T19:07:37;99086.41;;;4.89;100.00
66762;BME280;53672;48.176;16.338;2023-02-03T19:12:39;99069.19;;;4.96;100.00
66762;BME280;53672;48.176;16.338;2023-02-03T19:17:41;99094.31;;;5.00;100.00
66762;BME280;53672;48.176;16.338;2023-02-03T19:22:44;99071.97;;;5.06;100.00
66762;BME280;53672;48.176;16.338;2023-02-03T19:27:45;99080.78;;;5.07;100.00
66762;BME280;53672;48.176;16.338;2023-02-03T19:32:46;99069.13;;;5.13;99.92
66762;BME280;53672;48.176;16.338;2023-02-03T19:37:51;99067.50;;;5.12;99.79
66762;BME280;53672;48.176;16.338;2023-02-03T19:42:53;99081.69;;;5.13;100.00
66762;BME280;53672;48.176;16.338;2023-02-03T19:47:54;99098.44;;;5.08;100.00
66762;BME280;53672;48.176;16.338;2023-02-03T19:52:57;99121.44;;;5.09;100.00
66762;BME280;53672;48.176;16.338;2023-02-03T19:57:58;99131.16;;;4.98;100.00
66762;BME280;53672;48.176;16.338;2023-02-03T20:03:00;99142.56;;;4.94;100.00
66762;BME280;53672;48.176;16.338;2023-02-03T20:08:05;99126.63;;;4.99;100.00
66762;BME280;53672;48.176;16.338;2023-02-03T20:13:06;99123.06;;;5.10;100.00
66762;BME280;53672;48.176;16.338;2023-02-03T20:18:07;99116.16;;;5.14;98.23
66762;BME280;53672;48.176;16.338;2023-02-03T20:23:10;99105.72;;;5.13;98.36
66762;BME280;53672;48.176;16.338;2023-02-03T20:28:11;99112.91;;;5.12;97.05
66762;BME280;53672;48.176;16.338;2023-02-03T20:33:12;99095.59;;;5.15;96.56
66762;BME280;53672;48.176;16.338;2023-02-03T20:38:15;99099.38;;;5.19;96.33
66762;BME280;53672;48.176;16.338;2023-02-03T20:43:17;99092.81;;;5.26;94.14
66762;BME280;53672;48.176;16.338;2023-02-03T20:48:20;99086.44;;;5.27;94.33
66762;BME280;53672;48.176;16.338;2023-02-03T20:53:25;99077.28;;;5.23;93.15
66762;BME280;53672;48.176;16.338;2023-02-03T20:58:27;99063.16;;;5.28;92.29
66762;BME280;53672;48.176;16.338;2023-02-03T21:03:28;99047.63;;;5.25;91.69
66762;BME280;53672;48.176;16.338;2023-02-03T21:08:31;99049.56;;;5.29;90.05
66762;BME280;53672;48.176;16.338;2023-02-03T21:13:35;99042.56;;;5.23;90.42
66762;BME280;53672;48.176;16.338;2023-02-03T21:18:38;99045.72;;;5.20;89.78
66762;BME280;53672;48.176;16.338;2023-02-03T21:23:45;99035.28;;;5.19;89.77
66762;BME280;53672;48.176;16.338;2023-02-03T21:28:48;99040.06;;;5.17;90.09
66762;BME280;53672;48.176;16.338;2023-02-03T21:33:52;99048.41;;;5.20;90.11
66762;BME280;53672;48.176;16.338;2023-02-03T21:38:56;99043.78;;;5.16;89.63
66762;BME280;53672;48.176;16.338;2023-02-03T21:43:58;99044.66;;;5.21;89.15
66762;BME280;53672;48.176;16.338;2023-02-03T21:49:00;99044.16;;;5.24;88.72
66762;BME280;53672;48.176;16.338;2023-02-03T21:54:19;99044.97;;;5.25;88.67
66762;BME280;53672;48.176;16.338;2023-02-03T21:59:23;99055.16;;;5.28;86.93
66762;BME280;53672;48.176;16.338;2023-02-03T22:04:25;99047.25;;;5.38;86.09
66762;BME280;53672;48.176;16.338;2023-02-03T22:09:27;99065.00;;;5.44;85.89
66762;BME280;53672;48.176;16.338;2023-02-03T22:14:28;99069.28;;;5.45;86.25
66762;BME280;53672;48.176;16.338;2023-02-03T22:19:29;99060.94;;;5.41;85.62
66762;BME280;53672;48.176;16.338;2023-02-03T22:24:31;99076.00;;;5.47;85.55
66762;BME280;53672;48.176;16.338;2023-02-03T22:29:31;99073.88;;;5.49;84.94
66762;BME280;53672;48.176;16.338;2023-02-03T22:34:32;99078.00;;;5.57;83.87
66762;BME280;53672;48.176;16.338;2023-02-03T22:39:34;99073.50;;;5.62;84.07
66762;BME280;53672;48.176;16.338;2023-02-03T22:44:34;99088.91;;;5.55;84.31
66762;BME280;53672;48.176;16.338;2023-02-03T22:49:35;99084.97;;;5.58;83.48
66762;BME280;53672;48.176;16.338;2023-02-03T22:54:37;99096.81;;;5.67;82.35
66762;BME280;53672;48.176;16.338;2023-02-03T22:59:37;99088.81;;;5.67;81.85
66762;BME280;53672;48.176;16.338;2023-02-03T23:04:38;99089.66;;;5.73;80.28
66762;BME280;53672;48.176;16.338;2023-02-03T23:09:39;99096.31;;;5.70;79.89
66762;BME280;53672;48.176;16.338;2023-02-03T23:14:40;99099.19;;;5.85;78.17
66762;BME280;53672;48.176;16.338;2023-02-03T23:19:41;99088.69;;;5.79;77.78
66762;BME280;53672;48.176;16.338;2023-02-03T23:24:42;99083.13;;;5.85;76.23
66762;BME280;53672;48.176;16.338;2023-02-03T23:29:43;99095.47;;;5.86;76.84
66762;BME280;53672;48.176;16.338;2023-02-03T23:34:43;99101.38;;;5.88;75.50
66762;BME280;53672;48.176;16.338;2023-02-03T23:39:45;99110.75;;;5.91;74.08
66762;BME280;53672;48.176;16.338;2023-02-03T23:44:46;99131.84;;;5.87;74.00
66762;BME280;53672;48.176;16.338;2023-02-03T23:49:46;99117.03;;;6.01;72.07
66762;BME280;53672;48.176;16.338;2023-02-03T23:54:48;99131.53;;;6.05;71.72
66762;BME280;53672;48.176;16.338;2023-02-03T23:59:49;99137.69;;;6.06;71.67
